Stations météo

réclame
Mon MeteoGroup
Heino aws, Pays-Bas (6278): Température de l'air & dewpoint: 17.07.2019 00:00:00 - 23.07.2019 00:00:00 (CEST)Heino aws, Pays-Bas (6278): Température de l'air 5cm: 17.07.2019 00:00:00 - 23.07.2019 00:00:00 (CEST)Heino aws, Pays-Bas (6278): Vitesse du vent & gusts: 17.07.2019 00:00:00 - 23.07.2019 00:00:00 (CEST)Heino aws, Pays-Bas (6278): Direction du vent: 17.07.2019 00:00:00 - 23.07.2019 00:00:00 (CEST)Heino aws, Pays-Bas (6278): Quantités de précipitations: 17.07.2019 00:00:00 - 23.07.2019 00:00:00 (CEST)
Date & Time tt [°C] td [°C] tt 5cm [°C] ff [km/h] ff [knt] fx [km/h] fx [knt] dd rr [mm]
23.07.2019 00:00:00 16,4 16,1 13,3 0 0 18 10 N 0,0
22.07.2019 23:00:00 17,6 16,7 14,2 0 0 4 2 N 0,0
22.07.2019 22:00:00 20,1 16,7 17,5 4 2 18 10 WSW 0,0
22.07.2019 21:00:00 23,8 17,1 22,9 11 6 22 12 W 0,0
22.07.2019 20:00:00 25,2 18,8 25,4 11 6 18 10 W 0,0
22.07.2019 19:00:00 26,0 18,7 26,6 11 6 22 12 WSW 0,0
22.07.2019 18:00:00 25,4 18,5 26,1 14 8 25 14 W 0,0
22.07.2019 17:00:00 25,9 18,5 26,5 14 8 25 14 W 0,0
22.07.2019 16:00:00 25,7 17,7 27,2 22 12 29 16 WSW 0,0
22.07.2019 15:00:00 25,4 18,3 27,9 18 10 25 14 WSW 0,0
22.07.2019 14:00:00 23,3 16,2 24,2 18 10 29 16 WSW 0,0
22.07.2019 13:00:00 23,0 15,3 24,7 18 10 29 16 WSW 0,0
22.07.2019 12:00:00 21,8 14,5 22,4 14 8 25 14 SW 0,0
22.07.2019 11:00:00 20,4 13,8 21,1 14 8 25 14 SW 0,0
22.07.2019 10:00:00 19,5 15,0 20,0 11 6 22 12 SW 0,0
22.07.2019 09:00:00 18,2 14,4 18,4 11 6 - - SSW -
22.07.2019 08:00:00 - - - - - - - - -
22.07.2019 07:00:00 - - - - - - - - -
22.07.2019 06:00:00 - - - - - - - - -
22.07.2019 05:00:00 - - - - - - - - -
22.07.2019 04:00:00 - - - - - - - - -
22.07.2019 03:00:00 - - - - - - - - -
22.07.2019 02:00:00 16,3 15,5 - 7 4 29 16 SSW -
22.07.2019 01:00:00 - - - - - - - - -
22.07.2019 00:00:00 - - - - - - - - -
21.07.2019 23:00:00 - - - - - - - - -
21.07.2019 22:00:00 - - - - - - - - -
21.07.2019 21:00:00 - - - - - - - - -
21.07.2019 20:00:00 - - - - - - - - -
21.07.2019 19:00:00 - - - - - - - - -
21.07.2019 18:00:00 - - - - - - - - -
21.07.2019 17:00:00 - - - - - - - - -
21.07.2019 16:00:00 - - - - - - - - -
21.07.2019 15:00:00 - - - - - - - - -
21.07.2019 14:00:00 - - - - - - - - -
21.07.2019 13:00:00 - - - - - - - - -
21.07.2019 12:00:00 - - - - - - - - -
21.07.2019 11:00:00 - - - - - - - - -
21.07.2019 10:00:00 - - - - - - - - -
21.07.2019 09:00:00 - - - - - - - - -
21.07.2019 08:00:00 - - - - - - - - -
21.07.2019 07:00:00 - - - - - - - - -
21.07.2019 06:00:00 - - - - - - - - -
21.07.2019 05:00:00 - - - - - - - - -
21.07.2019 04:00:00 - - - - - - - - -
21.07.2019 03:00:00 - - - - - - - - -
21.07.2019 02:00:00 - - - - - - - - -
21.07.2019 01:00:00 - - - - - - - - -
21.07.2019 00:00:00 - - - - - - - - -
20.07.2019 23:00:00 - - - - - - - - -
20.07.2019 22:00:00 - - - - - - - - -
20.07.2019 21:00:00 - - - - - - - - -
20.07.2019 20:00:00 - - - - - - - - -
20.07.2019 19:00:00 - - - - - - - - -
20.07.2019 18:00:00 - - - - - - - - -
20.07.2019 17:00:00 - - - - - - - - -
20.07.2019 16:00:00 - - - - - - - - -
20.07.2019 15:00:00 - - - - - - - - -
20.07.2019 14:00:00 - - - - - - - - -
20.07.2019 13:00:00 17,8 15,4 17,6 14 8 36 19 SW 1,0
20.07.2019 12:00:00 21,2 14,9 21,0 14 8 29 16 SW 0,0
20.07.2019 11:00:00 22,3 15,3 22,9 18 10 29 16 SW 0,0
20.07.2019 10:00:00 22,2 16,2 21,9 11 6 22 12 SW 0,0
20.07.2019 09:00:00 22,1 15,4 22,7 11 6 25 14 S 0,0
20.07.2019 08:00:00 19,7 14,2 19,8 11 6 22 12 SE 0,0
20.07.2019 07:00:00 18,8 13,2 17,7 11 6 22 12 SSE 0,0
20.07.2019 06:00:00 18,8 12,6 17,3 7 4 18 10 SSE 0,0
20.07.2019 05:00:00 19,4 12,1 18,3 11 6 18 10 SE 0,0
20.07.2019 04:00:00 18,7 13,0 17,7 7 4 11 6 SE 0,0
20.07.2019 03:00:00 19,0 13,4 18,2 7 4 11 6 SE 0,0
20.07.2019 02:00:00 18,9 14,2 18,0 7 4 11 6 SE 0,0
20.07.2019 01:00:00 17,2 15,7 16,5 7 4 11 6 E 0,0
20.07.2019 00:00:00 17,5 15,9 15,7 0 0 4 2 N 0,0
19.07.2019 23:00:00 18,1 15,7 16,6 0 0 4 2 N 0,0
19.07.2019 22:00:00 20,0 14,7 18,5 0 0 11 6 N 0,0
19.07.2019 21:00:00 21,9 13,0 20,4 4 2 11 6 S 0,0
19.07.2019 20:00:00 23,1 13,4 22,5 7 4 18 10 S 0,0
19.07.2019 19:00:00 23,7 11,6 24,2 7 4 14 8 S 0,0
19.07.2019 18:00:00 24,4 12,1 26,5 4 2 14 8 W 0,0
19.07.2019 17:00:00 23,2 11,8 22,8 4 2 18 10 SW 0,0
19.07.2019 16:00:00 24,5 12,6 27,3 7 4 22 12 SW 0,0
19.07.2019 15:00:00 22,6 13,4 24,5 7 4 18 10 W 0,0
19.07.2019 14:00:00 22,8 12,8 25,5 7 4 18 10 W 0,0
19.07.2019 13:00:00 22,7 11,4 26,0 11 6 22 12 SW 0,0
19.07.2019 12:00:00 22,0 10,3 25,2 11 6 14 8 SW 0,0
19.07.2019 11:00:00 20,6 13,8 22,9 7 4 14 8 SW 0,0
19.07.2019 10:00:00 18,7 15,2 19,7 7 4 11 6 SW 0,0
19.07.2019 09:00:00 18,0 15,2 19,3 4 2 11 6 WSW 0,0
19.07.2019 08:00:00 16,6 16,3 17,2 7 4 11 6 WSW 0,0
19.07.2019 07:00:00 14,8 14,8 13,9 4 2 4 2 WSW 0,0
19.07.2019 06:00:00 14,0 14,0 10,9 4 2 11 6 WSW 0,0
19.07.2019 05:00:00 15,0 14,8 13,2 4 2 11 6 WSW 0,0
19.07.2019 04:00:00 16,7 15,9 16,2 7 4 11 6 WSW 0,0
19.07.2019 03:00:00 16,9 16,2 16,6 4 2 11 6 SW 0,0
19.07.2019 02:00:00 17,1 16,4 16,7 7 4 18 10 WSW 0,0
19.07.2019 01:00:00 17,3 16,2 16,9 14 8 25 14 WSW 0,0
19.07.2019 00:00:00 17,5 16,1 17,2 18 10 29 16 SW 0,0
18.07.2019 23:00:00 17,5 16,2 17,2 14 8 25 14 SW 0,0
18.07.2019 22:00:00 17,6 16,6 17,5 11 6 32 18 WSW 0,0
18.07.2019 21:00:00 20,6 14,7 19,6 4 2 11 6 S 0,0
18.07.2019 20:00:00 21,1 14,5 20,9 11 6 25 14 SW 0,0
18.07.2019 19:00:00 22,2 13,1 21,6 14 8 25 14 SW 0,0
18.07.2019 18:00:00 22,0 13,2 22,5 18 10 32 18 WSW 0,0
18.07.2019 17:00:00 23,3 14,0 24,0 14 8 25 14 WSW 0,0
18.07.2019 16:00:00 23,7 13,6 24,7 14 8 25 14 SW 0,0
18.07.2019 15:00:00 24,1 12,5 25,4 18 10 29 16 SW 0,0
18.07.2019 14:00:00 24,7 13,6 25,6 11 6 29 16 SSE 0,0
18.07.2019 13:00:00 24,3 13,3 26,4 14 8 29 16 S 0,0
18.07.2019 12:00:00 23,5 13,1 24,8 14 8 29 16 SSE 0,0
18.07.2019 11:00:00 22,5 13,9 24,3 14 8 25 14 SSE 0,0
18.07.2019 10:00:00 20,9 13,8 22,5 14 8 22 12 SSE 0,0
18.07.2019 09:00:00 18,8 13,7 19,2 7 4 14 8 SSE 0,0
18.07.2019 08:00:00 16,7 13,1 16,5 7 4 14 8 SSE 0,0
18.07.2019 07:00:00 15,5 12,7 14,5 7 4 11 6 SE 0,0
18.07.2019 06:00:00 14,4 12,3 12,7 4 2 14 8 SSE 0,0
18.07.2019 05:00:00 14,7 12,3 13,5 7 4 14 8 SE 0,0
18.07.2019 04:00:00 14,4 12,2 12,3 7 4 11 6 SE 0,0
18.07.2019 03:00:00 12,9 12,0 9,7 4 2 11 6 SE 0,0
18.07.2019 02:00:00 12,0 11,3 9,7 4 2 11 6 SE 0,0
18.07.2019 01:00:00 11,7 11,4 8,3 4 2 4 2 E 0,0
18.07.2019 00:00:00 13,5 12,8 9,4 0 0 4 2 N 0,0
17.07.2019 23:00:00 14,5 13,4 11,0 0 0 7 4 N 0,0
17.07.2019 22:00:00 17,0 14,1 15,2 0 0 4 2 N 0,0
17.07.2019 21:00:00 20,5 14,2 20,6 0 0 11 6 N 0,0
17.07.2019 20:00:00 24,0 13,7 23,9 0 0 4 2 N 0,0
17.07.2019 19:00:00 22,1 12,1 22,4 4 2 14 8 ESE 0,0
17.07.2019 18:00:00 23,2 11,7 25,2 7 4 11 6 ESE 0,0
17.07.2019 17:00:00 21,7 11,5 21,8 7 4 14 8 N 0,0
17.07.2019 16:00:00 21,1 11,7 22,0 7 4 14 8 NW 0,0
17.07.2019 15:00:00 21,6 12,9 24,9 4 2 11 6 NNW 0,0
17.07.2019 14:00:00 21,6 14,3 24,7 4 2 11 6 SSW 0,0
17.07.2019 13:00:00 20,2 13,2 - 4 2 14 8 W 0,0
17.07.2019 12:00:00 18,6 13,0 21,9 4 2 11 6 ESE 0,0
17.07.2019 11:00:00 16,8 12,5 19,3 4 2 11 6 NW 0,0
17.07.2019 10:00:00 15,6 12,6 17,2 7 4 14 8 NNW 0,0
17.07.2019 09:00:00 15,2 13,1 16,4 7 4 11 6 N 0,0
17.07.2019 08:00:00 13,0 12,7 13,8 0 0 4 2 N 0,0
17.07.2019 07:00:00 12,1 12,0 12,4 0 0 0 0 N 0,0
17.07.2019 06:00:00 11,0 11,0 10,2 0 0 4 2 N 0,0
17.07.2019 05:00:00 9,4 9,4 6,4 0 0 4 2 N 0,0
17.07.2019 04:00:00 10,0 10,0 6,4 0 0 4 2 N 0,0
17.07.2019 03:00:00 10,8 10,8 8,1 0 0 4 2 N 0,0
17.07.2019 02:00:00 12,0 11,8 9,6 0 0 4 2 N 0,0
17.07.2019 01:00:00 12,6 12,6 12,3 0 0 4 2 N 0,0
17.07.2019 00:00:00 12,1 12,1 9,7 0 0 0 0 N 0,0

tt = Température de l'air
td = dewpoint
tt 5cm = Température de l'air 5cm
ff = Vitesse du vent
fx = gusts
dd = Direction du vent
rr = Quantités de précipitations

stations d'obs. à proximité